Time;durP1;ratioP1;P1;durP2;ratioP2;P2;SDS_P1;SDS_P2;PMS_P1;PMS_P2;Temp;Humidity;BMP_temperature;BMP_pressure;BME280_temperature;BME280_humidity;BME280_pressure;Samples;Min_cycle;Max_cycle;Signal;HPM_P1;HPM_P2
2023/04/19 00:00:09;;;;;;;15.10;10.80;;;;;;;9.70;63.48;100997.75;115094;1233;22184;-80
2023/04/19 00:02:59;;;;;;;13.60;10.70;;;;;;;9.58;63.11;100995.44;115498;1233;22288;-80
2023/04/19 00:05:33;;;;;;;14.00;11.60;;;;;;;9.47;62.70;100995.70;115481;1233;21813;-81
2023/04/19 00:08:08;;;;;;;13.80;11.90;;;;;;;9.37;62.27;100992.96;115490;1233;21793;-81
2023/04/19 00:10:38;;;;;;;14.00;11.20;;;;;;;9.26;62.25;100980.89;115097;1233;21871;-82
2023/04/19 00:13:18;;;;;;;12.10;10.80;;;;;;;9.20;62.00;100985.70;114713;1238;21881;-80
2023/04/19 00:15:50;;;;;;;14.30;10.30;;;;;;;9.17;61.95;100982.64;114556;1238;21883;-80
2023/04/19 00:18:22;;;;;;;16.50;10.60;;;;;;;9.13;61.69;100977.34;113719;1244;21913;-80
2023/04/19 00:20:53;;;;;;;20.60;10.40;;;;;;;9.10;61.49;100978.46;114027;1244;21950;-80
2023/04/19 00:23:25;;;;;;;12.20;9.70;;;;;;;9.04;61.32;100979.63;113828;1244;22203;-80
2023/04/19 00:26:02;;;;;;;13.60;10.40;;;;;;;9.00;61.11;100977.44;114047;1244;21904;-81
2023/04/19 00:28:33;;;;;;;12.30;10.80;;;;;;;8.96;60.97;100975.44;114025;1244;21870;-78
2023/04/19 00:31:05;;;;;;;12.70;10.50;;;;;;;8.93;60.72;100974.14;113842;1240;21855;-81
2023/04/19 00:33:52;;;;;;;12.40;9.90;;;;;;;8.89;60.67;100964.15;114476;1241;21874;-81
2023/04/19 00:36:39;;;;;;;14.90;10.50;;;;;;;8.86;60.55;100961.42;114773;1233;22045;-80
2023/04/19 00:39:08;;;;;;;15.10;10.30;;;;;;;8.84;60.32;100966.32;114309;1239;21903;-79
2023/04/19 00:41:42;;;;;;;12.10;9.60;;;;;;;8.78;60.38;100958.64;114500;1239;22330;-81
2023/04/19 00:44:22;;;;;;;14.50;10.70;;;;;;;8.75;60.26;100958.69;114826;1239;22435;-81
2023/04/19 00:46:59;;;;;;;11.90;9.70;;;;;;;8.69;60.31;100957.27;114456;1239;21847;-80
2023/04/19 00:49:31;;;;;;;16.80;10.00;;;;;;;8.67;60.42;100958.34;114441;1239;21863;-80
2023/04/19 00:52:00;;;;;;;13.70;10.20;;;;;;;8.67;60.40;100954.36;114441;1239;21902;-81
2023/04/19 00:54:30;;;;;;;15.90;9.90;;;;;;;8.64;60.32;100950.60;113877;1243;22367;-82
2023/04/19 00:57:00;;;;;;;13.70;9.30;;;;;;;8.57;60.08;100941.02;113316;1249;21995;-82
2023/04/19 00:59:30;;;;;;;18.10;11.70;;;;;;;8.51;59.95;100947.23;113339;1248;21865;-78
2023/04/19 01:02:00;;;;;;;10.80;9.40;;;;;;;8.44;59.96;100940.23;113478;1249;22324;-81
2023/04/19 01:04:30;;;;;;;12.60;9.50;;;;;;;8.39;59.80;100936.33;113716;1243;22479;-80
2023/04/19 01:07:02;;;;;;;13.60;9.30;;;;;;;8.35;59.74;100932.41;114058;1243;21866;-81
2023/04/19 01:09:31;;;;;;;14.70;9.00;;;;;;;8.28;59.69;100931.83;113867;1243;21892;-81
2023/04/19 01:12:02;;;;;;;12.50;8.70;;;;;;;8.23;59.62;100933.30;113744;1243;22180;-82
2023/04/19 01:14:31;;;;;;;12.00;9.10;;;;;;;8.15;59.58;100929.48;114158;1239;21858;-81
2023/04/19 01:17:02;;;;;;;12.00;8.30;;;;;;;8.09;59.74;100925.44;114681;1239;21855;-81
2023/04/19 01:19:35;;;;;;;13.80;8.10;;;;;;;8.05;59.76;100924.83;114331;1239;21867;-82
2023/04/19 01:22:05;;;;;;;12.60;8.20;;;;;;;7.97;59.73;100923.22;113767;1245;21888;-80
2023/04/19 01:24:35;;;;;;;13.10;9.10;;;;;;;7.94;59.61;100918.79;113714;1245;21872;-80
2023/04/19 01:27:03;;;;;;;14.90;8.30;;;;;;;7.90;59.67;100915.39;113310;1250;21929;-81
2023/04/19 01:29:39;;;;;;;11.70;7.60;;;;;;;7.87;59.82;100911.10;113449;1248;22255;-81
2023/04/19 01:32:08;;;;;;;16.50;9.00;;;;;;;7.86;59.98;100907.64;112816;1256;21884;-81
2023/04/19 01:34:41;;;;;;;9.90;7.90;;;;;;;7.83;59.88;100909.44;112588;1258;21823;-81
2023/04/19 01:37:13;;;;;;;12.60;8.30;;;;;;;7.81;59.98;100910.50;112688;1255;21925;-80
2023/04/19 01:39:42;;;;;;;13.40;8.50;;;;;;;7.83;60.22;100910.64;112993;1255;21781;-81
2023/04/19 01:42:11;;;;;;;14.20;8.20;;;;;;;7.87;60.24;100905.73;113032;1255;22270;-81
2023/04/19 01:44:40;;;;;;;21.80;10.70;;;;;;;7.90;60.22;100906.52;113106;1251;21896;-80
2023/04/19 01:47:15;;;;;;;18.50;8.50;;;;;;;7.90;60.06;100906.20;113027;1251;21879;-81
2023/04/19 01:49:44;;;;;;;19.60;8.70;;;;;;;7.88;59.99;100902.59;113286;1244;21868;-82
2023/04/19 01:52:16;;;;;;;9.90;7.60;;;;;;;7.88;60.15;100896.87;113498;1242;21869;-82
2023/04/19 01:54:53;;;;;;;16.90;8.20;;;;;;;7.75;60.00;100893.64;114404;1241;22394;-79
2023/04/19 01:57:24;;;;;;;10.30;7.50;;;;;;;7.62;60.24;100890.55;113811;1246;21878;-79
2023/04/19 01:59:53;;;;;;;15.40;7.80;;;;;;;7.56;60.42;100889.96;113813;1246;21898;-80
2023/04/19 02:02:22;;;;;;;14.80;8.50;;;;;;;7.52;60.34;100891.60;113326;1249;21800;-80
2023/04/19 02:04:58;;;;;;;9.20;7.10;;;;;;;7.39;60.39;100887.81;113447;1245;22309;-81
2023/04/19 02:07:33;;;;;;;12.50;7.20;;;;;;;7.35;60.53;100888.23;114030;1245;21831;-80
2023/04/19 02:10:05;;;;;;;12.30;6.90;;;;;;;7.30;60.50;100887.98;114116;1242;21903;-81
2023/04/19 02:12:37;;;;;;;9.30;6.70;;;;;;;7.31;60.64;100891.94;114266;1242;21790;-81
2023/04/19 02:15:07;;;;;;;9.00;5.70;;;;;;;7.29;60.60;100889.89;113770;1242;21866;-80
2023/04/19 02:17:38;;;;;;;9.80;6.10;;;;;;;7.28;60.40;100893.19;114408;1242;21941;-79
2023/04/19 02:20:08;;;;;;;11.60;6.10;;;;;;;7.21;60.25;100892.25;114535;1238;21859;-79
2023/04/19 02:22:37;;;;;;;10.70;6.30;;;;;;;7.16;60.15;100889.40;114535;1238;21927;-80
2023/04/19 02:25:09;;;;;;;9.00;5.90;;;;;;;7.09;60.06;100888.63;114871;1238;21854;-79
2023/04/19 02:27:38;;;;;;;13.60;6.30;;;;;;;7.01;59.82;100886.84;114683;1238;21865;-80
2023/04/19 02:30:08;;;;;;;9.20;6.20;;;;;;;6.97;59.84;100885.70;114735;1238;21861;-79
2023/04/19 02:32:37;;;;;;;10.10;6.30;;;;;;;6.96;59.78;100881.04;114911;1233;21861;-80
2023/04/19 02:35:07;;;;;;;10.80;6.60;;;;;;;6.97;59.75;100881.02;115063;1233;22140;-79
2023/04/19 02:37:36;;;;;;;11.50;6.70;;;;;;;6.95;59.61;100877.06;115261;1233;21787;-80
2023/04/19 02:40:09;;;;;;;10.40;6.10;;;;;;;6.95;59.56;100873.95;115055;1232;22317;-79
2023/04/19 02:42:38;;;;;;;9.50;6.50;;;;;;;6.91;59.55;100868.47;115453;1233;21800;-80
2023/04/19 02:45:10;;;;;;;12.90;6.50;;;;;;;6.89;59.66;100864.52;115071;1232;21803;-80
2023/04/19 02:47:39;;;;;;;8.30;5.80;;;;;;;6.91;59.72;100858.45;115070;1233;21820;-79
2023/04/19 02:50:09;;;;;;;12.30;6.70;;;;;;;6.85;59.69;100859.90;115437;1233;21828;-81
2023/04/19 02:52:42;;;;;;;13.30;6.50;;;;;;;6.83;59.86;100860.45;114951;1233;21829;-80
2023/04/19 02:55:15;;;;;;;9.20;6.50;;;;;;;6.83;59.82;100860.79;115056;1232;21853;-81
2023/04/19 02:57:45;;;;;;;10.40;7.30;;;;;;;6.73;60.01;100867.34;114928;1233;22058;-79
2023/04/19 03:00:14;;;;;;;7.60;6.80;;;;;;;6.71;60.24;100864.42;114949;1233;21866;-81
2023/04/19 03:02:49;;;;;;;11.60;7.10;;;;;;;6.70;60.65;100868.26;114929;1233;22161;-79
2023/04/19 03:05:18;;;;;;;12.50;7.60;;;;;;;6.72;60.95;100863.20;115451;1233;21801;-80
2023/04/19 03:07:47;;;;;;;9.50;6.60;;;;;;;6.62;60.92;100864.20;115275;1233;22327;-79
2023/04/19 03:10:20;;;;;;;11.90;7.10;;;;;;;6.51;61.26;100857.43;115266;1233;22390;-79
2023/04/19 03:12:48;;;;;;;11.30;7.40;;;;;;;6.44;61.84;100855.96;114620;1239;21872;-80
2023/04/19 03:15:19;;;;;;;11.10;7.80;;;;;;;6.35;62.20;100856.23;113665;1246;21919;-81
2023/04/19 03:17:49;;;;;;;15.40;6.50;;;;;;;6.26;62.62;100851.69;113674;1246;21874;-79
2023/04/19 03:20:19;;;;;;;14.70;7.10;;;;;;;6.18;62.97;100853.34;113655;1246;21925;-80
2023/04/19 03:22:48;;;;;;;11.70;7.40;;;;;;;6.07;63.26;100853.63;113292;1250;21886;-80
2023/04/19 03:25:18;;;;;;;12.40;8.50;;;;;;;6.01;63.53;100854.91;113303;1250;21882;-81
2023/04/19 03:27:52;;;;;;;12.90;8.60;;;;;;;5.93;63.79;100854.11;113118;1250;22305;-82
2023/04/19 03:30:32;;;;;;;13.10;8.20;;;;;;;5.86;64.13;100851.40;113495;1244;21914;-80
2023/04/19 03:33:04;;;;;;;11.40;8.30;;;;;;;5.86;64.52;100850.02;114073;1244;21863;-80
2023/04/19 03:35:36;;;;;;;11.40;8.20;;;;;;;5.87;64.60;100846.21;114025;1244;21872;-79
2023/04/19 03:38:12;;;;;;;43.60;39.10;;;;;;;5.87;64.92;100841.54;114049;1244;22309;-80
2023/04/19 03:40:42;;;;;;;21.90;11.50;;;;;;;5.89;65.22;100844.13;114449;1233;21848;-79
2023/04/19 03:43:14;;;;;;;13.80;8.60;;;;;;;5.93;65.44;100842.71;115506;1233;22177;-80
2023/04/19 03:45:55;;;;;;;12.50;9.30;;;;;;;5.97;65.63;100837.66;115105;1233;21875;-81
2023/04/19 03:48:30;;;;;;;14.60;9.40;;;;;;;6.01;65.82;100836.61;115587;1233;22152;-82
2023/04/19 03:51:01;;;;;;;16.00;11.60;;;;;;;6.04;65.95;100832.42;114517;1239;22259;-80
2023/04/19 03:53:30;;;;;;;16.90;11.80;;;;;;;6.04;65.93;100826.89;114443;1240;21857;-82
2023/04/19 03:56:04;;;;;;;13.20;10.30;;;;;;;6.06;66.04;100822.38;114183;1240;21956;-80
2023/04/19 03:58:41;;;;;;;16.90;10.10;;;;;;;6.05;66.04;100824.11;114461;1240;22403;-80
2023/04/19 04:01:23;;;;;;;16.50;9.40;;;;;;;6.06;66.18;100821.16;114235;1243;21901;-80
2023/04/19 04:04:04;;;;;;;12.20;8.60;;;;;;;6.04;66.18;100814.79;113234;1250;21768;-79
2023/04/19 04:07:02;;;;;;;11.20;7.40;;;;;;;6.03;66.38;100812.22;113317;1250;21878;-79
2023/04/19 04:09:37;;;;;;;13.00;7.30;;;;;;;6.05;66.62;100808.73;113795;1244;21959;-80
2023/04/19 04:12:28;;;;;;;11.20;7.10;;;;;;;6.01;66.42;100806.02;113410;1247;21908;-80
2023/04/19 04:15:00;;;;;;;;;;;;;;;5.99;66.51;100802.56;113429;1248;21889;-80
2023/04/19 04:17:33;;;;;;;11.70;8.30;;;;;;;5.88;66.82;100800.60;113658;1247;21919;-79
2023/04/19 04:20:04;;;;;;;10.70;7.20;;;;;;;5.88;66.97;100798.53;113306;1248;21883;-79
2023/04/19 04:22:39;;;;;;;13.10;7.70;;;;;;;5.90;66.93;100794.89;113841;1242;21865;-79
2023/04/19 04:25:14;;;;;;;10.50;7.20;;;;;;;5.89;66.93;100790.75;113796;1245;21920;-80
2023/04/19 04:27:44;;;;;;;9.90;6.80;;;;;;;5.88;66.86;100788.34;113688;1245;21900;-80
2023/04/19 04:30:17;;;;;;;16.60;8.30;;;;;;;5.86;66.86;100788.88;113698;1246;22307;-80
2023/04/19 04:32:46;;;;;;;12.80;8.20;;;;;;;5.87;67.04;100793.70;113708;1246;21943;-80
2023/04/19 04:35:16;;;;;;;13.00;9.00;;;;;;;5.87;67.18;100793.36;113309;1249;22168;-81
2023/04/19 04:37:55;;;;;;;16.70;8.70;;;;;;;5.90;67.33;100799.38;113658;1245;21879;-79
2023/04/19 04:40:28;;;;;;;20.30;9.70;;;;;;;5.93;67.35;100799.86;114007;1245;21880;-78
2023/04/19 04:43:03;;;;;;;17.80;11.10;;;;;;;5.91;67.22;100798.15;113842;1243;21861;-80
2023/04/19 04:45:36;;;;;;;19.30;14.10;;;;;;;5.91;67.23;100798.17;114094;1243;22184;-78
2023/04/19 04:48:07;;;;;;;19.90;16.30;;;;;;;5.90;67.08;100801.64;113293;1250;21898;-80
2023/04/19 04:50:43;;;;;;;18.00;14.50;;;;;;;5.86;67.23;100798.73;113593;1246;22194;-79
2023/04/19 04:53:14;;;;;;;18.20;12.20;;;;;;;5.88;67.37;100801.64;114008;1241;21874;-78
2023/04/19 04:55:50;;;;;;;15.40;11.00;;;;;;;5.93;67.40;100807.30;114308;1241;21912;-81
2023/04/19 04:58:23;;;;;;;13.90;10.00;;;;;;;5.92;67.29;100803.52;114485;1240;22207;-79
2023/04/19 05:01:07;;;;;;;14.10;9.80;;;;;;;5.94;67.36;100805.73;114289;1241;21875;-80
2023/04/19 05:03:40;;;;;;;12.30;8.40;;;;;;;5.98;67.59;100800.34;114512;1241;21896;-80
2023/04/19 05:06:14;;;;;;;14.30;11.40;;;;;;;6.03;67.28;100804.27;114828;1232;21855;-78
2023/04/19 05:08:47;;;;;;;12.20;7.60;;;;;;;6.05;67.15;100800.79;115470;1232;22422;-79
2023/04/19 05:11:43;;;;;;;8.90;7.70;;;;;;;6.01;67.15;100799.63;115147;1232;21798;-77
2023/04/19 05:14:14;;;;;;;11.60;8.50;;;;;;;6.03;67.01;100798.39;115283;1232;21883;-81
2023/04/19 05:16:47;;;;;;;12.30;9.00;;;;;;;6.02;66.91;100793.05;114844;1236;21859;-79
2023/04/19 05:19:18;;;;;;;14.00;8.20;;;;;;;6.07;67.27;100794.73;115017;1237;22182;-80
2023/04/19 05:21:53;;;;;;;18.20;10.10;;;;;;;6.08;66.82;100790.40;114095;1243;21914;-78
2023/04/19 05:24:26;;;;;;;15.70;9.80;;;;;;;6.07;66.86;100787.11;114029;1243;22385;-78
2023/04/19 05:27:02;;;;;;;10.70;8.60;;;;;;;6.11;67.10;100788.10;114319;1243;22011;-80
2023/04/19 05:29:35;;;;;;;13.10;9.20;;;;;;;6.16;66.89;100786.48;114382;1243;22352;-80
2023/04/19 05:32:10;;;;;;;15.80;9.90;;;;;;;6.10;66.61;100780.86;114276;1243;21879;-83
2023/04/19 05:34:47;;;;;;;14.20;8.00;;;;;;;6.10;66.80;100782.58;114224;1239;21886;-79
2023/04/19 05:37:23;;;;;;;13.60;9.20;;;;;;;6.09;66.64;100781.56;114730;1239;21936;-79
2023/04/19 05:39:57;;;;;;;13.70;10.20;;;;;;;6.04;66.60;100780.92;114779;1238;21903;-78
2023/04/19 05:42:36;;;;;;;19.40;11.70;;;;;;;6.11;66.96;100782.21;114445;1239;21874;-79
2023/04/19 05:45:42;;;;;;;18.40;10.00;;;;;;;6.20;67.18;100777.95;114519;1233;21888;-80
2023/04/19 05:48:15;;;;;;;16.50;10.30;;;;;;;6.29;67.06;100776.79;115454;1233;22180;-80
2023/04/19 05:51:20;;;;;;;13.30;9.50;;;;;;;6.36;66.86;100779.48;115339;1233;21818;-80
2023/04/19 05:54:11;;;;;;;12.60;8.90;;;;;;;6.41;66.84;100773.55;114822;1238;21866;-79
2023/04/19 05:56:48;;;;;;;13.80;10.80;;;;;;;6.44;66.53;100773.15;114569;1239;21856;-79
2023/04/19 05:59:24;;;;;;;17.00;12.70;;;;;;;6.46;66.39;100771.22;114469;1239;21863;-80
2023/04/19 06:02:01;;;;;;;15.80;11.90;;;;;;;6.47;66.30;100765.66;114444;1239;21903;-79
2023/04/19 06:04:38;;;;;;;17.70;11.50;;;;;;;6.47;66.12;100767.92;114780;1238;21882;-79
2023/04/19 06:07:23;;;;;;;18.40;11.90;;;;;;;6.46;65.87;100767.59;114084;1242;22236;-80
2023/04/19 06:10:14;;;;;;;15.70;11.10;;;;;;;6.46;66.12;100769.14;114137;1242;22322;-80
2023/04/19 06:12:44;;;;;;;15.00;10.80;;;;;;;6.49;66.01;100764.77;114384;1238;21986;-82
2023/04/19 06:15:22;;;;;;;20.00;13.20;;;;;;;6.52;65.96;100767.49;114684;1238;21880;-80
2023/04/19 06:18:04;;;;;;;14.50;12.90;;;;;;;6.53;65.89;100767.13;114808;1238;21925;-79
2023/04/19 06:20:42;;;;;;;15.70;13.20;;;;;;;6.53;65.86;100768.52;114308;1242;21825;-77
2023/04/19 06:23:22;;;;;;;19.20;14.20;;;;;;;6.56;66.09;100767.95;114326;1242;21957;-76
2023/04/19 06:25:54;;;;;;;16.40;12.20;;;;;;;6.63;66.08;100767.17;114591;1239;21891;-81
2023/04/19 06:28:27;;;;;;;15.20;12.60;;;;;;;6.61;65.59;100761.49;114615;1239;21900;-79
2023/04/19 06:31:02;;;;;;;16.30;11.20;;;;;;;6.51;65.27;100764.23;114716;1239;21832;-75
2023/04/19 06:33:34;;;;;;;21.00;11.40;;;;;;;6.50;65.36;100763.56;114687;1239;21888;-76
2023/04/19 06:36:06;;;;;;;19.70;11.50;;;;;;;6.47;65.61;100758.92;114553;1239;22297;-75
2023/04/19 06:38:43;;;;;;;13.10;10.60;;;;;;;6.50;65.61;100763.20;115072;1233;22319;-74
2023/04/19 06:41:22;;;;;;;17.70;10.60;;;;;;;6.51;65.38;100767.70;115565;1232;22153;-76
2023/04/19 06:43:54;;;;;;;13.80;10.30;;;;;;;6.48;65.30;100768.77;115282;1232;22347;-77
2023/04/19 06:46:23;;;;;;;19.00;12.90;;;;;;;6.46;65.21;100770.88;115229;1232;22350;-79
2023/04/19 06:48:55;;;;;;;22.60;13.00;;;;;;;6.41;65.07;100768.88;115459;1229;21735;-78
2023/04/19 06:51:26;;;;;;;;;;;;;;;6.39;65.30;100768.02;115453;1232;21806;-78
2023/04/19 06:53:59;;;;;;;19.40;12.80;;;;;;;6.28;65.42;100762.31;115032;1232;21875;-77
2023/04/19 06:56:44;;;;;;;20.80;12.50;;;;;;;6.27;65.46;100763.01;115458;1233;21788;-77
2023/04/19 06:59:18;;;;;;;29.50;20.80;;;;;;;6.38;66.04;100762.69;115573;1232;22192;-77
2023/04/19 07:01:56;;;;;;;14.60;10.70;;;;;;;6.50;66.05;100759.23;115262;1232;21850;-79
2023/04/19 07:04:30;;;;;;;20.00;11.60;;;;;;;6.59;65.98;100756.15;115480;1232;21800;-80
2023/04/19 07:07:04;;;;;;;19.70;10.60;;;;;;;6.72;65.88;100756.81;115261;1232;21874;-79
2023/04/19 07:09:35;;;;;;;15.90;10.90;;;;;;;6.86;65.96;100754.89;115464;1232;21829;-79
2023/04/19 07:12:10;;;;;;;14.30;10.10;;;;;;;7.05;65.95;100754.39;115214;1233;21991;-78
2023/04/19 07:14:43;;;;;;;18.50;10.90;;;;;;;7.25;65.93;100749.05;115074;1232;21808;-77
2023/04/19 07:17:17;;;;;;;537.10;70.40;;;;;;;7.50;66.38;100747.70;115480;1232;22151;-76
2023/04/19 07:19:51;;;;;;;23.80;11.20;;;;;;;8.05;66.98;100743.50;115555;1232;22283;-79
2023/04/19 07:22:34;;;;;;;20.90;11.30;;;;;;;8.46;65.80;100743.33;115355;1233;21880;-78
2023/04/19 07:25:04;;;;;;;14.70;10.00;;;;;;;8.66;64.20;100744.60;115433;1233;22168;-75
2023/04/19 07:27:35;;;;;;;22.40;11.10;;;;;;;8.83;63.96;100741.45;115048;1232;22279;-77
2023/04/19 07:30:06;;;;;;;19.70;11.30;;;;;;;9.01;63.46;100742.73;115093;1233;21860;-80
2023/04/19 07:32:38;;;;;;;19.60;11.50;;;;;;;9.15;62.99;100744.28;115628;1230;21859;-79
2023/04/19 07:35:18;;;;;;;14.40;10.40;;;;;;;9.17;61.94;100744.74;115559;1233;21802;-82
2023/04/19 07:38:03;;;;;;;13.50;10.40;;;;;;;9.06;61.44;100742.59;115314;1232;21808;-78
2023/04/19 07:40:37;;;;;;;22.60;14.00;;;;;;;8.93;61.16;100740.13;115446;1232;21817;-79
2023/04/19 07:43:13;;;;;;;18.50;14.20;;;;;;;8.85;61.25;100739.63;115470;1233;21816;-79
2023/04/19 07:45:54;;;;;;;16.80;11.50;;;;;;;8.79;61.21;100735.10;115103;1233;21817;-79
2023/04/19 07:48:36;;;;;;;24.20;15.60;;;;;;;8.66;60.99;100736.29;115448;1232;22716;-80
2023/04/19 07:51:12;;;;;;;21.80;15.30;;;;;;;8.48;60.93;100737.73;115447;1232;21797;-79
2023/04/19 07:53:45;;;;;;;13.90;11.20;;;;;;;8.33;61.09;100730.41;114693;1238;21777;-78
2023/04/19 07:56:26;;;;;;;;;;;;;;;;;;;;;
2023/04/19 07:58:59;;;;;;;;;;;;;;;8.18;61.95;100728.15;114918;1238;21897;-79
2023/04/19 08:01:44;;;;;;;15.90;11.00;;;;;;;8.19;62.83;100728.46;114840;1238;22299;-78
2023/04/19 08:04:18;;;;;;;16.00;9.70;;;;;;;8.40;63.18;100727.16;114831;1238;22326;-79
2023/04/19 08:06:58;;;;;;;13.90;9.70;;;;;;;8.48;62.55;100719.85;115001;1238;21861;-79
2023/04/19 08:09:40;;;;;;;15.10;10.80;;;;;;;8.47;61.79;100725.45;114194;1244;21858;-80
2023/04/19 08:12:29;;;;;;;17.00;15.10;;;;;;;8.37;61.43;100728.27;114407;1239;22307;-79
2023/04/19 08:15:09;;;;;;;12.50;9.70;;;;;;;8.30;61.72;100730.48;114751;1239;21794;-78
2023/04/19 08:17:57;;;;;;;18.10;12.10;;;;;;;8.24;61.92;100725.08;114733;1239;21897;-80
2023/04/19 08:20:41;;;;;;;15.00;11.00;;;;;;;8.22;61.84;100723.73;114535;1237;21915;-80
2023/04/19 08:23:18;;;;;;;15.50;11.00;;;;;;;8.21;62.08;100718.36;114646;1239;21865;-79
2023/04/19 08:25:58;;;;;;;14.40;10.90;;;;;;;8.24;62.13;100715.38;114551;1239;21827;-79
2023/04/19 08:28:35;;;;;;;17.80;11.80;;;;;;;8.23;62.03;100711.92;114919;1233;21855;-78
2023/04/19 08:31:10;;;;;;;15.10;9.80;;;;;;;8.21;61.98;100712.31;115468;1233;21793;-78
2023/04/19 08:33:44;;;;;;;17.10;9.70;;;;;;;8.10;61.98;100709.08;115289;1232;21847;-78
2023/04/19 08:36:21;;;;;;;13.80;10.90;;;;;;;8.13;62.17;100711.09;115498;1232;21898;-79
2023/04/19 08:39:12;;;;;;;16.80;11.20;;;;;;;8.13;62.35;100709.86;115565;1232;21814;-80
2023/04/19 08:42:09;;;;;;;15.00;11.70;;;;;;;8.18;62.55;100708.89;114664;1239;21853;-79
2023/04/19 08:45:12;;;;;;;10.50;9.10;;;;;;;8.18;62.24;100706.30;114577;1239;21861;-79
2023/04/19 08:48:01;;;;;;;15.20;9.70;;;;;;;8.05;62.06;100698.25;114634;1239;21859;-79
2023/04/19 08:50:35;;;;;;;17.30;10.40;;;;;;;8.06;62.35;100697.90;114557;1239;21986;-78
2023/04/19 08:53:23;;;;;;;15.20;11.20;;;;;;;8.07;62.45;100698.58;114735;1238;22323;-80
2023/04/19 08:55:57;;;;;;;14.00;11.30;;;;;;;8.12;62.46;100701.40;113922;1246;22300;-80
2023/04/19 08:58:42;;;;;;;18.00;13.70;;;;;;;8.12;62.55;100702.80;113898;1246;22207;-79
2023/04/19 09:01:44;;;;;;;13.40;11.40;;;;;;;8.12;62.61;100702.61;114603;1239;21866;-79
2023/04/19 09:04:28;;;;;;;16.90;12.10;;;;;;;8.08;62.29;100697.35;113963;1245;21878;-79
2023/04/19 09:07:07;;;;;;;14.90;11.20;;;;;;;8.02;62.36;100702.15;113955;1245;21806;-79
2023/04/19 09:10:09;;;;;;;13.70;12.10;;;;;;;8.02;62.53;100699.02;113605;1248;21878;-79
2023/04/19 09:13:00;;;;;;;16.80;12.70;;;;;;;8.03;62.64;100700.41;113554;1247;21893;-79
2023/04/19 09:15:39;;;;;;;17.10;12.30;;;;;;;8.02;62.59;100701.29;114046;1242;21866;-78
2023/04/19 09:18:14;;;;;;;15.40;11.90;;;;;;;7.99;62.35;100697.36;114098;1242;22483;-79
2023/04/19 09:20:47;;;;;;;18.50;13.90;;;;;;;7.93;62.46;100701.11;114345;1241;21882;-80
2023/04/19 09:23:24;;;;;;;17.60;12.20;;;;;;;7.91;62.36;100698.75;114000;1243;22310;-80
2023/04/19 09:26:15;;;;;;;11.50;10.30;;;;;;;7.86;62.32;100698.50;113279;1249;21888;-79
2023/04/19 09:29:05;;;;;;;10.50;9.40;;;;;;;7.74;62.26;100703.60;113197;1251;21918;-79
2023/04/19 09:31:40;;;;;;;14.90;11.00;;;;;;;7.58;62.21;100698.38;113174;1251;22323;-80
2023/04/19 09:34:21;;;;;;;13.40;10.80;;;;;;;7.51;62.48;100697.81;113229;1252;21842;-78
2023/04/19 09:37:11;;;;;;;16.60;12.20;;;;;;;7.48;62.44;100702.02;113168;1251;21939;-79
2023/04/19 09:40:23;;;;;;;13.80;10.90;;;;;;;7.49;62.95;100696.48;113222;1252;21874;-79
2023/04/19 09:43:06;;;;;;;18.00;11.60;;;;;;;7.52;62.98;100694.35;113940;1245;21874;-79
2023/04/19 09:45:47;;;;;;;12.20;10.50;;;;;;;7.58;63.31;100696.11;114615;1239;21775;-79
2023/04/19 09:48:22;;;;;;;18.40;11.80;;;;;;;7.67;63.40;100687.45;114556;1239;21924;-79
2023/04/19 09:51:00;;;;;;;14.20;10.90;;;;;;;7.86;63.56;100692.61;114714;1239;21844;-80
2023/04/19 09:53:45;;;;;;;16.10;11.20;;;;;;;7.95;63.22;100689.30;115091;1233;21872;-79
2023/04/19 09:56:25;;;;;;;11.90;9.90;;;;;;;7.98;62.71;100694.60;115482;1232;21859;-78
2023/04/19 09:59:13;;;;;;;;;;;;;;;;;;;;;
2023/04/19 10:01:55;;;;;;;16.90;13.00;;;;;;;7.90;62.46;100693.39;114991;1236;21782;-79
2023/04/19 10:04:29;;;;;;;19.20;12.50;;;;;;;7.87;62.50;100691.39;115052;1236;21826;-81
2023/04/19 10:07:58;;;;;;;16.80;13.60;;;;;;;7.83;62.65;100690.06;115093;1236;21871;-81
2023/04/19 10:10:33;;;;;;;22.10;16.90;;;;;;;7.83;62.75;100687.83;115145;1236;21853;-80
2023/04/19 10:13:22;;;;;;;17.10;12.90;;;;;;;7.83;62.89;100687.12;114792;1236;21835;-79
2023/04/19 10:15:54;;;;;;;15.40;13.50;;;;;;;7.90;63.09;100696.51;114977;1236;21860;-79
2023/04/19 10:19:08;;;;;;;14.70;12.40;;;;;;;7.93;62.91;100700.08;115447;1236;21851;-79
2023/04/19 10:21:46;;;;;;;18.80;11.50;;;;;;;7.90;62.80;100702.73;114729;1236;21876;-82
2023/04/19 10:24:20;;;;;;;15.00;12.80;;;;;;;7.91;62.71;100703.41;115339;1232;22336;-81
2023/04/19 10:27:11;;;;;;;16.20;12.80;;;;;;;7.86;62.78;100700.92;115529;1232;21862;-82
2023/04/19 10:30:20;;;;;;;18.10;14.30;;;;;;;7.91;63.07;100701.17;115007;1237;21862;-82
2023/04/19 10:33:41;;;;;;;12.90;11.40;;;;;;;7.99;63.47;100704.98;114708;1236;21877;-81
2023/04/19 10:36:19;;;;;;;18.00;13.60;;;;;;;8.03;63.12;100701.25;114770;1236;21865;-82
2023/04/19 10:38:54;;;;;;;16.20;12.80;;;;;;;8.00;62.81;100704.44;114882;1237;21839;-82
2023/04/19 10:41:58;;;;;;;14.20;11.30;;;;;;;7.97;62.64;100701.54;114592;1236;22225;-80
2023/04/19 10:44:31;;;;;;;16.30;11.50;;;;;;;7.99;63.03;100701.17;114976;1237;22317;-81
2023/04/19 10:48:04;;;;;;;11.20;9.90;;;;;;;8.03;62.93;100703.68;115076;1232;21894;-81
2023/04/19 10:55:12;;;;;;;18.60;12.10;;;;;;;7.94;63.05;100701.63;115516;1233;21858;-81
2023/04/19 10:58:11;;;;;;;14.60;12.90;;;;;;;7.93;62.87;100696.45;115559;1233;21815;-81
2023/04/19 11:02:06;;;;;;;30.90;16.20;;;;;;;7.93;63.22;100693.50;115317;1233;21813;-82
2023/04/19 11:05:05;;;;;;;23.40;15.30;;;;;;;8.04;63.73;100696.39;114310;1242;21873;-82
2023/04/19 11:07:56;;;;;;;18.70;16.50;;;;;;;8.17;63.52;100691.77;114075;1245;22337;-81
2023/04/19 11:11:26;;;;;;;19.30;14.10;;;;;;;8.28;63.31;100691.18;113741;1246;21876;-81
2023/04/19 11:14:08;;;;;;;11.80;10.60;;;;;;;8.37;63.17;100693.23;113851;1240;21872;-80
2023/04/19 11:17:01;;;;;;;14.00;10.90;;;;;;;8.42;63.09;100688.80;113858;1245;21863;-86
2023/04/19 11:19:54;;;;;;;10.80;9.70;;;;;;;8.43;63.11;100683.73;113917;1245;21879;-79
2023/04/19 11:23:00;;;;;;;11.50;10.20;;;;;;;8.44;63.06;100684.59;114059;1241;21872;-81
2023/04/19 11:25:32;;;;;;;21.20;12.10;;;;;;;8.43;63.12;100681.14;114478;1241;22314;-81
2023/04/19 11:28:32;;;;;;;19.50;13.40;;;;;;;8.47;63.22;100681.39;114614;1241;21880;-80
2023/04/19 11:31:03;;;;;;;26.00;18.00;;;;;;;8.52;63.22;100686.14;114380;1241;21813;-79
2023/04/19 11:33:36;;;;;;;24.70;16.50;;;;;;;8.58;63.23;100681.81;114498;1240;21882;-80
2023/04/19 11:36:42;;;;;;;;;;;;;;;;;;;;;
2023/04/19 11:39:49;;;;;;;20.80;16.20;;;;;;;8.67;63.50;100679.19;114415;1236;22362;-80
2023/04/19 11:42:31;;;;;;;23.60;17.50;;;;;;;8.79;63.78;100676.45;114227;1243;21862;-79
2023/04/19 11:45:28;;;;;;;15.20;13.30;;;;;;;8.92;63.69;100677.86;114440;1239;21878;-81
2023/04/19 11:48:15;;;;;;;25.80;21.40;;;;;;;8.98;63.45;100675.80;114547;1239;21912;-81
2023/04/19 11:50:48;;;;;;;13.80;12.30;;;;;;;9.07;63.40;100678.14;114647;1239;21875;-80
2023/04/19 11:53:45;;;;;;;20.80;13.50;;;;;;;9.10;63.02;100680.00;114560;1239;267497;-80
2023/04/19 11:56:15;;;;;;;27.60;16.60;;;;;;;9.11;62.91;100673.54;114664;1239;21928;-81
2023/04/19 11:58:50;;;;;;;28.60;16.90;;;;;;;9.16;62.87;100680.17;114741;1239;21894;-81
2023/04/19 12:01:23;;;;;;;15.80;12.60;;;;;;;9.21;62.70;100683.86;115289;1233;21875;-81
2023/04/19 12:03:56;;;;;;;;;;;;;;;9.11;62.10;100677.02;114730;1237;21879;-80
2023/04/19 12:06:30;;;;;;;15.90;14.30;;;;;;;8.90;62.45;100683.30;114713;1238;21856;-80
2023/04/19 12:08:59;;;;;;;20.30;14.80;;;;;;;8.85;62.67;100684.29;114707;1238;21864;-81
2023/04/19 12:11:49;;;;;;;16.00;14.40;;;;;;;8.86;62.71;100689.63;114804;1238;21912;-81